createdAt,value
2023-10-10T00:00:28.338Z,13.63
2023-10-10T00:03:20.826Z,13.37
2023-10-10T00:06:14.646Z,13.60
2023-10-10T00:09:07.082Z,14.43
2023-10-10T00:11:59.131Z,14.90
2023-10-10T00:14:51.766Z,14.30
2023-10-10T00:17:44.063Z,14.10
2023-10-10T00:20:42.331Z,13.80
2023-10-10T00:23:35.154Z,14.13
2023-10-10T00:26:27.019Z,13.97
2023-10-10T00:29:19.264Z,14.93
2023-10-10T00:32:15.256Z,14.20
2023-10-10T00:35:07.545Z,12.90
2023-10-10T00:37:58.776Z,14.00
2023-10-10T00:40:49.357Z,13.50
2023-10-10T00:43:39.244Z,13.17
2023-10-10T00:46:29.914Z,13.83
2023-10-10T00:49:24.637Z,13.83
2023-10-10T00:52:18.226Z,14.23
2023-10-10T00:55:08.784Z,14.50
2023-10-10T00:58:00.060Z,13.60
2023-10-10T01:00:52.039Z,13.80
2023-10-10T01:03:43.486Z,14.80
2023-10-10T01:06:33.258Z,14.03
2023-10-10T01:09:34.310Z,14.27
2023-10-10T01:12:25.015Z,14.73
2023-10-10T01:15:17.966Z,15.20
2023-10-10T01:18:14.632Z,14.40
2023-10-10T01:21:05.933Z,15.07
2023-10-10T01:23:55.544Z,15.00
2023-10-10T01:26:46.571Z,14.90
2023-10-10T01:29:42.199Z,15.43
2023-10-10T01:32:33.169Z,15.47
2023-10-10T01:35:25.088Z,14.97
2023-10-10T01:38:42.649Z,14.90
2023-10-10T01:41:40.150Z,13.93
2023-10-10T01:44:29.825Z,14.67
2023-10-10T01:47:27.624Z,13.30
2023-10-10T01:50:18.426Z,14.30
2023-10-10T01:53:11.093Z,13.53
2023-10-10T01:56:08.180Z,15.43
2023-10-10T01:58:57.703Z,14.30
2023-10-10T02:01:48.314Z,15.00
2023-10-10T02:04:38.423Z,14.27
2023-10-10T02:07:32.857Z,15.00
2023-10-10T02:10:27.448Z,14.80
2023-10-10T02:13:18.484Z,15.30
2023-10-10T02:16:12.168Z,15.40
2023-10-10T02:19:07.655Z,14.97
2023-10-10T02:22:13.974Z,15.60
2023-10-10T02:25:23.363Z,16.07
2023-10-10T02:28:21.588Z,14.83
2023-10-10T02:31:16.527Z,15.77
2023-10-10T02:34:11.147Z,15.73
2023-10-10T02:37:14.619Z,14.80
2023-10-10T02:40:14.976Z,14.60
2023-10-10T02:43:20.439Z,14.97
2023-10-10T02:46:11.303Z,14.13
2023-10-10T02:49:03.378Z,13.80
2023-10-10T02:51:56.993Z,14.90
2023-10-10T02:54:55.328Z,14.57
2023-10-10T02:57:47.418Z,14.50
2023-10-10T03:00:38.956Z,14.47
2023-10-10T03:03:29.783Z,14.03
2023-10-10T03:06:20.009Z,13.77
2023-10-10T03:09:15.111Z,14.60
2023-10-10T03:12:06.880Z,14.00
2023-10-10T03:14:56.443Z,13.77
2023-10-10T03:17:49.694Z,14.03
2023-10-10T03:20:52.393Z,13.20
2023-10-10T03:23:54.568Z,13.73
2023-10-10T03:27:01.235Z,13.13
2023-10-10T03:29:51.451Z,13.20
2023-10-10T03:33:01.038Z,14.00
2023-10-10T03:36:00.490Z,13.60
2023-10-10T03:39:15.135Z,13.80
2023-10-10T03:42:22.397Z,13.17
2023-10-10T03:45:30.534Z,13.00
2023-10-10T03:48:37.740Z,12.77
2023-10-10T03:51:46.240Z,13.67
2023-10-10T03:54:53.123Z,13.37
2023-10-10T03:57:59.809Z,13.63
2023-10-10T04:01:06.412Z,13.93
2023-10-10T04:04:24.516Z,14.00
2023-10-10T04:07:32.897Z,13.20
2023-10-10T04:10:39.707Z,13.30
2023-10-10T04:13:46.604Z,12.53
2023-10-10T04:16:53.449Z,12.97
2023-10-10T04:20:00.389Z,13.13
2023-10-10T04:23:08.375Z,12.43
2023-10-10T04:26:21.581Z,13.03
2023-10-10T04:29:28.329Z,12.87
2023-10-10T04:32:35.196Z,12.50
2023-10-10T04:35:42.007Z,12.70
2023-10-10T04:38:58.500Z,13.37
2023-10-10T04:42:05.284Z,13.33
2023-10-10T04:45:12.297Z,13.37
2023-10-10T04:48:19.030Z,13.47
2023-10-10T04:51:25.634Z,13.37
2023-10-10T04:54:42.089Z,14.23
2023-10-10T04:57:48.666Z,13.70
2023-10-10T05:00:55.571Z,13.80
2023-10-10T05:04:04.172Z,13.87
2023-10-10T05:07:10.736Z,14.40
2023-10-10T05:10:18.740Z,14.73
2023-10-10T05:13:25.669Z,15.10
2023-10-10T05:16:32.398Z,14.77
2023-10-10T05:19:39.380Z,15.37
2023-10-10T05:22:46.574Z,15.00
2023-10-10T05:25:38.697Z,15.30
2023-10-10T05:28:31.683Z,15.10
2023-10-10T05:31:22.752Z,14.57
2023-10-10T05:34:12.589Z,15.50
2023-10-10T05:37:01.973Z,15.00
2023-10-10T05:39:57.358Z,14.70
2023-10-10T05:42:48.246Z,14.60
2023-10-10T05:45:38.578Z,14.60
2023-10-10T05:48:28.669Z,14.77
2023-10-10T05:51:18.046Z,14.80
2023-10-10T05:54:09.001Z,14.10
2023-10-10T05:56:58.384Z,14.60
2023-10-10T05:59:49.479Z,14.20
2023-10-10T06:02:39.169Z,14.40
2023-10-10T06:05:30.710Z,14.30
2023-10-10T06:08:21.211Z,14.03
2023-10-10T06:11:10.863Z,14.53
2023-10-10T06:14:00.316Z,14.13
2023-10-10T06:16:53.630Z,13.87
2023-10-10T06:19:46.812Z,14.00
2023-10-10T06:22:38.149Z,14.90
2023-10-10T06:25:30.386Z,14.10
2023-10-10T06:28:27.206Z,14.57
2023-10-10T06:31:21.562Z,14.07
2023-10-10T06:34:23.696Z,14.40
2023-10-10T06:37:13.396Z,14.67
2023-10-10T06:40:08.866Z,14.33
2023-10-10T06:43:00.909Z,14.40
2023-10-10T06:45:56.144Z,14.17
2023-10-10T06:48:48.514Z,15.83
2023-10-10T06:51:41.904Z,15.00
2023-10-10T06:54:35.695Z,14.30
2023-10-10T06:57:39.719Z,14.73
2023-10-10T07:00:43.191Z,16.37
2023-10-10T07:03:41.271Z,14.90
2023-10-10T07:06:31.116Z,15.00
2023-10-10T07:09:30.380Z,14.07
2023-10-10T07:12:20.861Z,15.00
2023-10-10T07:15:15.553Z,14.20
2023-10-10T07:18:11.454Z,14.50
2023-10-10T07:21:09.460Z,13.00
2023-10-10T07:24:14.938Z,13.17
2023-10-10T07:27:12.487Z,14.00
2023-10-10T07:30:09.774Z,13.20
2023-10-10T07:33:01.990Z,13.43
2023-10-10T07:35:55.050Z,13.33
2023-10-10T07:38:44.464Z,12.67
2023-10-10T07:41:37.206Z,12.57
2023-10-10T07:44:31.332Z,12.90
2023-10-10T07:47:27.396Z,12.37
2023-10-10T07:50:19.697Z,13.30
2023-10-10T07:53:14.134Z,12.40
2023-10-10T07:56:03.826Z,11.90
2023-10-10T07:58:58.079Z,12.53
2023-10-10T08:01:49.415Z,12.20
2023-10-10T08:04:39.029Z,12.57
2023-10-10T08:07:28.457Z,12.20
2023-10-10T08:10:31.025Z,11.60
2023-10-10T08:13:23.836Z,12.27
2023-10-10T08:16:20.974Z,11.87
2023-10-10T08:19:12.387Z,11.83
2023-10-10T08:22:13.536Z,11.47
2023-10-10T08:25:03.175Z,11.60
2023-10-10T08:27:52.589Z,12.17
2023-10-10T08:30:41.915Z,11.60
2023-10-10T08:33:33.969Z,12.20
2023-10-10T08:36:27.854Z,11.50
2023-10-10T08:39:26.998Z,24.80
2023-10-10T08:42:16.715Z,18.23
2023-10-10T08:45:16.154Z,15.00
2023-10-10T08:48:11.303Z,13.70
2023-10-10T08:51:05.229Z,13.60
2023-10-10T08:53:56.958Z,12.90
2023-10-10T08:57:01.263Z,13.30
2023-10-10T08:59:53.801Z,13.07
2023-10-10T09:02:43.523Z,12.00
2023-10-10T09:05:33.693Z,13.10
2023-10-10T09:08:28.023Z,12.30
2023-10-10T09:11:20.490Z,12.10
2023-10-10T09:14:11.273Z,12.50
2023-10-10T09:17:04.124Z,12.80
2023-10-10T09:19:53.458Z,12.03
2023-10-10T09:22:45.431Z,12.50
2023-10-10T09:25:43.120Z,11.67
2023-10-10T09:28:45.958Z,12.37
2023-10-10T09:31:35.554Z,13.10
2023-10-10T09:34:29.593Z,12.80
2023-10-10T09:37:28.844Z,12.03
2023-10-10T09:40:18.619Z,12.83
2023-10-10T09:43:14.901Z,13.40
2023-10-10T09:46:12.338Z,11.97
2023-10-10T09:49:15.942Z,11.80
2023-10-10T09:52:22.842Z,12.07
2023-10-10T09:55:40.228Z,12.10
2023-10-10T09:58:31.350Z,11.53
2023-10-10T10:01:25.444Z,12.40
2023-10-10T10:04:20.310Z,11.63
2023-10-10T10:07:42.364Z,11.20
2023-10-10T10:10:50.616Z,19.17
2023-10-10T10:14:12.556Z,13.13
2023-10-10T10:17:19.994Z,11.47
2023-10-10T10:20:21.573Z,12.33
2023-10-10T10:23:19.144Z,11.70
2023-10-10T10:26:11.933Z,11.57
2023-10-10T10:29:16.597Z,10.80
2023-10-10T10:32:11.864Z,12.00
2023-10-10T10:35:05.632Z,12.00
2023-10-10T10:37:59.748Z,12.30
2023-10-10T10:40:49.567Z,11.47
2023-10-10T10:43:42.715Z,11.37
2023-10-10T10:46:41.213Z,11.77
2023-10-10T10:49:40.665Z,11.67
2023-10-10T10:52:45.103Z,11.63
2023-10-10T10:55:41.216Z,10.87
2023-10-10T10:58:29.752Z,11.60
2023-10-10T11:01:19.595Z,12.03
2023-10-10T11:04:15.885Z,12.13
2023-10-10T11:07:08.929Z,12.87
2023-10-10T11:10:08.852Z,12.20
2023-10-10T11:13:08.787Z,12.20
2023-10-10T11:16:11.942Z,12.30
2023-10-10T11:19:13.155Z,12.10
2023-10-10T11:22:06.251Z,12.40
2023-10-10T11:24:59.170Z,12.30
2023-10-10T11:27:50.420Z,11.90
2023-10-10T11:30:44.346Z,12.17
2023-10-10T11:33:50.265Z,11.73
2023-10-10T11:36:42.604Z,12.30
2023-10-10T11:39:35.291Z,11.97
2023-10-10T11:42:35.035Z,11.77
2023-10-10T11:45:27.496Z,13.20
2023-10-10T11:48:17.645Z,12.20
2023-10-10T11:51:07.597Z,12.37
2023-10-10T11:53:57.034Z,15.30
2023-10-10T11:56:47.558Z,13.13
2023-10-10T11:59:43.054Z,12.87
2023-10-10T12:02:41.053Z,12.33
2023-10-10T12:05:48.555Z,11.97
2023-10-10T12:08:39.452Z,13.03
2023-10-10T12:11:34.264Z,12.70
2023-10-10T12:14:25.422Z,12.20
2023-10-10T12:17:18.478Z,13.00
2023-10-10T12:20:09.689Z,12.10
2023-10-10T12:23:00.020Z,12.13
2023-10-10T12:25:50.354Z,11.60
2023-10-10T12:28:39.957Z,11.83
2023-10-10T12:31:29.380Z,12.17
2023-10-10T12:34:22.690Z,11.97
2023-10-10T12:37:16.589Z,12.80
2023-10-10T12:40:10.422Z,12.47
2023-10-10T12:42:59.949Z,12.57
2023-10-10T12:45:52.356Z,12.80
2023-10-10T12:48:41.984Z,12.60
2023-10-10T12:51:32.931Z,12.83
2023-10-10T12:54:23.010Z,12.53
2023-10-10T12:57:15.703Z,12.57
2023-10-10T13:00:23.697Z,12.50
2023-10-10T13:03:13.321Z,12.90
2023-10-10T13:06:05.721Z,13.10
2023-10-10T13:08:57.746Z,12.20
2023-10-10T13:11:47.397Z,12.63
2023-10-10T13:14:37.363Z,12.40
2023-10-10T13:17:33.038Z,12.87
2023-10-10T13:20:23.789Z,12.37
2023-10-10T13:23:14.819Z,12.37
2023-10-10T13:26:07.420Z,12.90
2023-10-10T13:28:57.867Z,12.80
2023-10-10T13:31:47.936Z,12.10
2023-10-10T13:34:38.294Z,12.30
2023-10-10T13:37:27.812Z,12.03
2023-10-10T13:40:23.687Z,12.57
2023-10-10T13:43:18.313Z,13.50
2023-10-10T13:46:07.950Z,13.40
2023-10-10T13:48:57.416Z,12.23
2023-10-10T13:51:46.816Z,12.40
2023-10-10T13:54:36.160Z,12.50
2023-10-10T13:57:25.702Z,13.17
2023-10-10T14:00:30.518Z,13.47
2023-10-10T14:03:30.017Z,13.30
2023-10-10T14:06:23.601Z,13.10
2023-10-10T14:09:12.977Z,13.60
2023-10-10T14:12:03.489Z,13.17
2023-10-10T14:14:53.212Z,12.73
2023-10-10T14:17:44.181Z,13.30
2023-10-10T14:20:34.674Z,12.87
2023-10-10T14:23:26.460Z,13.00
2023-10-10T14:26:18.484Z,12.77
2023-10-10T14:29:08.226Z,13.43
2023-10-10T14:32:00.087Z,12.80
2023-10-10T14:34:51.761Z,13.10
2023-10-10T14:37:49.815Z,12.87
2023-10-10T14:40:49.816Z,12.90
2023-10-10T14:43:39.192Z,12.87
2023-10-10T14:46:33.119Z,13.30
2023-10-10T14:49:30.234Z,12.97
2023-10-10T14:52:21.064Z,13.50
2023-10-10T14:55:25.217Z,12.90
2023-10-10T14:58:15.041Z,13.37
2023-10-10T15:01:05.312Z,14.03
2023-10-10T15:03:55.671Z,13.57
2023-10-10T15:06:45.969Z,12.97
2023-10-10T15:09:37.084Z,12.70
2023-10-10T15:12:26.510Z,12.90
2023-10-10T15:15:17.814Z,13.20
2023-10-10T15:18:07.586Z,13.57
2023-10-10T15:20:59.267Z,13.07
2023-10-10T15:23:49.129Z,13.00
2023-10-10T15:26:40.751Z,13.83
2023-10-10T15:29:34.102Z,12.90
2023-10-10T15:32:23.701Z,14.23
2023-10-10T15:35:13.342Z,13.97
2023-10-10T15:38:04.694Z,13.57
2023-10-10T15:40:54.074Z,14.17
2023-10-10T15:43:48.171Z,13.63
2023-10-10T15:46:42.217Z,14.07
2023-10-10T15:49:36.981Z,13.23
2023-10-10T15:52:26.817Z,13.37
2023-10-10T15:55:19.675Z,14.23
2023-10-10T15:58:09.252Z,13.10
2023-10-10T16:00:59.926Z,13.43
2023-10-10T16:03:49.583Z,13.40
2023-10-10T16:06:39.045Z,13.63
2023-10-10T16:09:31.605Z,13.93
2023-10-10T16:12:23.632Z,13.57
2023-10-10T16:15:30.159Z,13.30
2023-10-10T16:18:22.110Z,13.17
2023-10-10T16:21:11.864Z,13.30
2023-10-10T16:24:03.535Z,14.03
2023-10-10T16:26:59.554Z,13.40
2023-10-10T16:29:48.972Z,12.87
2023-10-10T16:32:38.599Z,13.10
2023-10-10T16:35:32.343Z,13.70
2023-10-10T16:38:24.029Z,13.10
2023-10-10T16:41:13.777Z,13.17
2023-10-10T16:44:03.340Z,13.53
2023-10-10T16:46:54.729Z,13.00
2023-10-10T16:49:44.081Z,12.90
2023-10-10T16:52:39.355Z,12.80
2023-10-10T16:55:32.795Z,12.53
2023-10-10T16:58:23.805Z,12.70
2023-10-10T17:01:16.748Z,13.23
2023-10-10T17:04:07.054Z,12.90
2023-10-10T17:06:56.568Z,12.40
2023-10-10T17:09:47.363Z,12.90
2023-10-10T17:12:36.771Z,12.10
2023-10-10T17:15:26.977Z,12.20
2023-10-10T17:18:16.674Z,12.37
2023-10-10T17:21:06.317Z,12.80
2023-10-10T17:23:58.360Z,12.57
2023-10-10T17:26:49.237Z,11.77
2023-10-10T17:29:38.868Z,12.40
2023-10-10T17:32:28.397Z,11.90
2023-10-10T17:35:18.876Z,11.90
2023-10-10T17:38:08.290Z,12.73
2023-10-10T17:41:03.301Z,12.03
2023-10-10T17:43:54.572Z,11.60
2023-10-10T17:46:43.995Z,12.20
2023-10-10T17:49:33.414Z,11.60
2023-10-10T17:52:24.742Z,11.73
2023-10-10T17:55:14.279Z,11.73
2023-10-10T17:58:04.616Z,11.80
2023-10-10T18:00:56.741Z,11.23
2023-10-10T18:03:47.593Z,11.70
2023-10-10T18:06:37.093Z,11.80
2023-10-10T18:09:33.335Z,11.57
2023-10-10T18:12:24.372Z,11.80
2023-10-10T18:15:13.933Z,12.00
2023-10-10T18:18:09.031Z,11.80
2023-10-10T18:20:58.532Z,11.53
2023-10-10T18:23:48.720Z,11.13
2023-10-10T18:26:39.255Z,11.00
2023-10-10T18:29:29.033Z,11.10
2023-10-10T18:32:19.277Z,11.60
2023-10-10T18:35:14.963Z,12.03
2023-10-10T18:38:08.785Z,11.47
2023-10-10T18:40:58.205Z,12.27
2023-10-10T18:43:47.583Z,11.50
2023-10-10T18:46:37.166Z,11.20
2023-10-10T18:49:26.619Z,11.33
2023-10-10T18:52:17.345Z,11.70
2023-10-10T18:55:08.095Z,11.83
2023-10-10T18:57:59.568Z,12.30
2023-10-10T19:00:51.984Z,12.07
2023-10-10T19:03:48.213Z,11.93
2023-10-10T19:06:40.055Z,11.17
2023-10-10T19:09:31.520Z,12.00
2023-10-10T19:12:21.899Z,11.17
2023-10-10T19:15:14.093Z,11.00
2023-10-10T19:18:05.048Z,11.30
2023-10-10T19:20:54.543Z,11.23
2023-10-10T19:23:43.987Z,11.50
2023-10-10T19:26:36.451Z,10.80
2023-10-10T19:29:29.863Z,11.20
2023-10-10T19:32:19.677Z,11.67
2023-10-10T19:35:11.401Z,10.97
2023-10-10T19:38:00.832Z,11.07
2023-10-10T19:40:50.131Z,11.53
2023-10-10T19:43:41.227Z,11.33
2023-10-10T19:46:31.019Z,11.07
2023-10-10T19:49:20.432Z,11.30
2023-10-10T19:52:12.358Z,10.87
2023-10-10T19:55:16.983Z,11.40
2023-10-10T19:58:11.596Z,11.07
2023-10-10T20:01:05.885Z,11.10
2023-10-10T20:03:56.726Z,11.10
2023-10-10T20:06:48.282Z,11.10
2023-10-10T20:09:37.719Z,11.63
2023-10-10T20:12:27.209Z,10.97
2023-10-10T20:15:17.008Z,10.87
2023-10-10T20:18:10.272Z,11.40
2023-10-10T20:20:59.851Z,11.53
2023-10-10T20:23:50.976Z,11.00
2023-10-10T20:26:40.559Z,11.13
2023-10-10T20:29:30.029Z,10.70
2023-10-10T20:32:19.520Z,11.43
2023-10-10T20:35:17.086Z,11.27
2023-10-10T20:38:07.808Z,10.80
2023-10-10T20:40:57.453Z,11.17
2023-10-10T20:43:48.063Z,11.43
2023-10-10T20:46:37.750Z,10.93
2023-10-10T20:49:28.253Z,11.10
2023-10-10T20:52:19.376Z,10.93
2023-10-10T20:55:11.963Z,11.50
2023-10-10T20:58:01.805Z,10.87
2023-10-10T21:00:52.389Z,11.00
2023-10-10T21:03:42.103Z,10.90
2023-10-10T21:06:31.996Z,11.00
2023-10-10T21:09:23.902Z,10.70
2023-10-10T21:12:13.482Z,11.10
2023-10-10T21:15:03.769Z,11.23
2023-10-10T21:18:00.058Z,11.37
2023-10-10T21:21:02.601Z,10.93
2023-10-10T21:23:53.546Z,10.50
2023-10-10T21:26:45.892Z,10.67
2023-10-10T21:29:35.342Z,11.30
2023-10-10T21:32:24.785Z,11.83
2023-10-10T21:35:14.249Z,11.23
2023-10-10T21:38:04.124Z,11.47
2023-10-10T21:40:53.492Z,11.53
2023-10-10T21:43:44.354Z,11.30
2023-10-10T21:46:33.739Z,11.63
2023-10-10T21:49:23.913Z,11.60
2023-10-10T21:52:18.912Z,11.40
2023-10-10T21:55:10.469Z,10.87
2023-10-10T21:57:59.889Z,11.10
2023-10-10T22:00:56.428Z,11.10
2023-10-10T22:03:47.409Z,11.17
2023-10-10T22:06:37.075Z,11.20
2023-10-10T22:09:26.620Z,11.67
2023-10-10T22:12:16.610Z,11.20
2023-10-10T22:15:09.527Z,11.63
2023-10-10T22:18:00.492Z,11.33
2023-10-10T22:20:50.083Z,11.30
2023-10-10T22:23:39.605Z,10.67
2023-10-10T22:26:29.000Z,11.70
2023-10-10T22:29:19.633Z,11.03
2023-10-10T22:32:11.202Z,11.50
2023-10-10T22:35:02.003Z,11.20
2023-10-10T22:37:53.371Z,11.70
2023-10-10T22:40:42.839Z,11.70
2023-10-10T22:43:32.219Z,11.43
2023-10-10T22:46:21.566Z,11.20
2023-10-10T22:49:11.765Z,11.30
2023-10-10T22:52:02.845Z,11.03
2023-10-10T22:54:52.779Z,11.20
2023-10-10T22:57:45.201Z,11.30
2023-10-10T23:00:38.153Z,11.43
2023-10-10T23:03:30.169Z,10.93
2023-10-10T23:06:19.598Z,11.40
2023-10-10T23:09:10.405Z,11.50
2023-10-10T23:11:59.864Z,10.70
2023-10-10T23:14:49.596Z,11.30
2023-10-10T23:17:40.614Z,11.17
2023-10-10T23:20:31.875Z,11.43
2023-10-10T23:23:21.313Z,11.10
2023-10-10T23:26:12.279Z,11.20
2023-10-10T23:29:02.271Z,11.33
2023-10-10T23:31:51.793Z,11.20
2023-10-10T23:34:41.232Z,11.20
2023-10-10T23:37:32.757Z,11.40
2023-10-10T23:40:26.034Z,11.00
2023-10-10T23:43:20.619Z,11.63
2023-10-10T23:46:13.451Z,11.13
2023-10-10T23:49:08.852Z,11.70
2023-10-10T23:51:58.281Z,11.53
2023-10-10T23:54:47.685Z,10.90
2023-10-10T23:57:37.015Z,11.30
